createdAt,value
2022-08-21T00:00:27.531Z,55.10
2022-08-21T00:03:03.700Z,55.10
2022-08-21T00:05:33.229Z,55.00
2022-08-21T00:08:01.251Z,55.00
2022-08-21T00:10:29.362Z,55.00
2022-08-21T00:12:57.761Z,55.00
2022-08-21T00:15:29.627Z,55.00
2022-08-21T00:17:58.412Z,55.00
2022-08-21T00:20:26.738Z,55.00
2022-08-21T00:22:55.471Z,55.00
2022-08-21T00:25:26.473Z,55.00
2022-08-21T00:27:54.714Z,55.00
2022-08-21T00:30:24.331Z,55.00
2022-08-21T00:32:55.305Z,55.00
2022-08-21T00:35:25.662Z,55.00
2022-08-21T00:37:53.874Z,54.90
2022-08-21T00:40:26.131Z,54.90
2022-08-21T00:42:54.239Z,54.90
2022-08-21T00:45:23.126Z,54.90
2022-08-21T00:47:54.885Z,54.90
2022-08-21T00:50:23.421Z,54.90
2022-08-21T00:52:52.650Z,54.90
2022-08-21T00:55:23.506Z,54.80
2022-08-21T00:57:55.086Z,54.80
2022-08-21T01:00:28.865Z,55.50
2022-08-21T01:02:58.457Z,54.90
2022-08-21T01:05:27.833Z,54.80
2022-08-21T01:07:58.066Z,54.80
2022-08-21T01:10:26.444Z,54.80
2022-08-21T01:12:57.199Z,54.80
2022-08-21T01:15:29.680Z,54.80
2022-08-21T01:17:59.018Z,55.40
2022-08-21T01:20:32.360Z,54.70
2022-08-21T01:23:02.474Z,54.80
2022-08-21T01:25:30.975Z,54.70
2022-08-21T01:28:01.202Z,54.70
2022-08-21T01:30:30.262Z,54.70
2022-08-21T01:32:59.024Z,54.70
2022-08-21T01:35:27.341Z,54.70
2022-08-21T01:37:55.526Z,54.70
2022-08-21T01:40:24.891Z,54.70
2022-08-21T01:42:52.873Z,54.60
2022-08-21T01:45:21.526Z,54.70
2022-08-21T01:47:49.674Z,54.70
2022-08-21T01:50:21.361Z,54.60
2022-08-21T01:52:49.630Z,54.70
2022-08-21T01:55:19.329Z,54.60
2022-08-21T01:57:49.488Z,54.60
2022-08-21T02:00:20.018Z,54.60
2022-08-21T02:02:47.983Z,54.60
2022-08-21T02:05:15.959Z,54.60
2022-08-21T02:07:46.698Z,54.50
2022-08-21T02:10:18.128Z,54.60
2022-08-21T02:12:46.121Z,54.50
2022-08-21T02:15:16.159Z,54.60
2022-08-21T02:17:47.722Z,54.60
2022-08-21T02:20:19.087Z,54.50
2022-08-21T02:22:47.053Z,54.50
2022-08-21T02:25:15.462Z,54.50
2022-08-21T02:27:45.524Z,54.50
2022-08-21T02:30:18.030Z,54.50
2022-08-21T02:32:45.949Z,54.50
2022-08-21T02:35:14.183Z,54.50
2022-08-21T02:37:46.643Z,54.50
2022-08-21T02:40:15.866Z,54.50
2022-08-21T02:42:44.760Z,54.50
2022-08-21T02:45:13.292Z,54.50
2022-08-21T02:47:48.462Z,54.50
2022-08-21T02:50:20.256Z,54.50
2022-08-21T02:52:48.249Z,54.50
2022-08-21T02:55:21.767Z,54.40
2022-08-21T02:57:50.077Z,54.50
2022-08-21T03:00:18.275Z,54.50
2022-08-21T03:02:47.847Z,54.40
2022-08-21T03:05:17.127Z,54.40
2022-08-21T03:07:47.350Z,54.40
2022-08-21T03:10:16.334Z,54.40
2022-08-21T03:12:44.394Z,54.40
2022-08-21T03:15:19.677Z,54.40
2022-08-21T03:17:49.318Z,54.40
2022-08-21T03:20:19.820Z,54.40
2022-08-21T03:22:52.921Z,54.40
2022-08-21T03:25:32.829Z,54.40
2022-08-21T03:28:13.402Z,54.40
2022-08-21T03:30:42.113Z,54.40
2022-08-21T03:33:13.229Z,54.30
2022-08-21T03:35:45.520Z,54.40
2022-08-21T03:38:14.710Z,54.30
2022-08-21T03:40:42.971Z,54.20
2022-08-21T03:43:11.318Z,54.20
2022-08-21T03:45:40.768Z,54.20
2022-08-21T03:48:11.141Z,54.20
2022-08-21T03:50:44.400Z,54.30
2022-08-21T03:53:16.432Z,54.30
2022-08-21T03:55:46.541Z,54.20
2022-08-21T03:58:16.346Z,54.20
2022-08-21T04:00:45.770Z,54.20
2022-08-21T04:03:15.209Z,54.20
2022-08-21T04:05:43.243Z,54.20
2022-08-21T04:08:11.183Z,54.20
2022-08-21T04:10:40.296Z,54.20
2022-08-21T04:13:10.042Z,54.20
2022-08-21T04:15:38.301Z,54.20
2022-08-21T04:18:07.474Z,54.30
2022-08-21T04:20:37.073Z,54.20
2022-08-21T04:23:05.441Z,54.20
2022-08-21T04:25:33.803Z,54.20
2022-08-21T04:28:02.756Z,54.20
2022-08-21T04:30:31.158Z,54.20
2022-08-21T04:32:59.749Z,54.20
2022-08-21T04:35:29.929Z,54.20
2022-08-21T04:37:59.871Z,54.20
2022-08-21T04:40:29.479Z,54.90
2022-08-21T04:43:02.834Z,54.20
2022-08-21T04:45:33.418Z,54.10
2022-08-21T04:48:03.219Z,54.10
2022-08-21T04:50:37.317Z,54.10
2022-08-21T04:53:09.322Z,54.10
2022-08-21T04:55:38.809Z,54.10
2022-08-21T04:58:07.456Z,54.10
2022-08-21T05:00:35.437Z,54.10
2022-08-21T05:03:05.804Z,54.10
2022-08-21T05:05:33.876Z,54.10
2022-08-21T05:08:04.460Z,54.10
2022-08-21T05:10:34.139Z,54.10
2022-08-21T05:13:02.745Z,54.10
2022-08-21T05:15:31.537Z,54.10
2022-08-21T05:18:01.317Z,54.10
2022-08-21T05:20:30.163Z,54.10
2022-08-21T05:22:58.994Z,54.10
2022-08-21T05:25:28.135Z,54.10
2022-08-21T05:27:58.106Z,54.10
2022-08-21T05:30:28.577Z,54.10
2022-08-21T05:32:59.321Z,54.10
2022-08-21T05:35:28.928Z,54.10
2022-08-21T05:37:57.239Z,54.10
2022-08-21T05:40:25.808Z,54.10
2022-08-21T05:42:55.666Z,54.10
2022-08-21T05:45:42.096Z,54.10
2022-08-21T05:48:13.486Z,54.10
2022-08-21T05:50:42.016Z,54.10
2022-08-21T05:53:11.205Z,54.10
2022-08-21T05:55:44.870Z,54.10
2022-08-21T05:58:14.195Z,54.10
2022-08-21T06:00:43.697Z,54.00
2022-08-21T06:03:17.863Z,54.10
2022-08-21T06:05:46.584Z,54.00
2022-08-21T06:08:14.725Z,54.00
2022-08-21T06:10:42.650Z,54.00
2022-08-21T06:13:10.597Z,54.70
2022-08-21T06:15:38.496Z,54.10
2022-08-21T06:18:07.892Z,54.00
2022-08-21T06:20:36.250Z,54.00
2022-08-21T06:23:04.637Z,54.00
2022-08-21T06:25:33.269Z,54.10
2022-08-21T06:28:05.654Z,54.00
2022-08-21T06:30:34.254Z,54.00
2022-08-21T06:33:02.578Z,54.00
2022-08-21T06:35:32.326Z,54.00
2022-08-21T06:38:00.328Z,54.00
2022-08-21T06:40:29.677Z,54.10
2022-08-21T06:42:58.523Z,54.00
2022-08-21T06:45:28.379Z,54.10
2022-08-21T06:48:00.632Z,54.00
2022-08-21T06:50:29.324Z,54.00
2022-08-21T06:53:07.635Z,54.00
2022-08-21T06:55:36.130Z,54.10
2022-08-21T06:58:04.267Z,54.10
2022-08-21T07:00:32.551Z,54.10
2022-08-21T07:03:00.585Z,54.00
2022-08-21T07:05:29.416Z,54.00
2022-08-21T07:07:58.193Z,54.00
2022-08-21T07:10:28.398Z,54.00
2022-08-21T07:13:00.993Z,54.00
2022-08-21T07:15:30.558Z,54.00
2022-08-21T07:17:59.156Z,54.00
2022-08-21T07:20:27.553Z,54.00
2022-08-21T07:22:55.965Z,54.00
2022-08-21T07:25:24.182Z,54.00
2022-08-21T07:27:53.517Z,54.00
2022-08-21T07:30:21.769Z,54.00
2022-08-21T07:32:50.824Z,54.00
2022-08-21T07:35:19.578Z,54.00
2022-08-21T07:37:48.265Z,54.00
2022-08-21T07:40:16.751Z,54.00
2022-08-21T07:42:46.029Z,54.00
2022-08-21T07:45:16.613Z,54.00
2022-08-21T07:47:44.553Z,54.00
2022-08-21T07:50:13.762Z,54.10
2022-08-21T07:52:42.642Z,54.00
2022-08-21T07:55:13.181Z,54.00
2022-08-21T07:57:41.521Z,54.00
2022-08-21T08:00:13.124Z,54.00
2022-08-21T08:02:42.655Z,54.10
2022-08-21T08:05:13.007Z,54.10
2022-08-21T08:07:41.412Z,54.00
2022-08-21T08:10:11.347Z,54.10
2022-08-21T08:12:42.088Z,54.10
2022-08-21T08:15:13.111Z,54.10
2022-08-21T08:17:42.430Z,54.10
2022-08-21T08:20:13.500Z,54.10
2022-08-21T08:22:42.230Z,54.10
2022-08-21T08:25:13.088Z,54.10
2022-08-21T08:27:41.378Z,54.10
2022-08-21T08:30:11.516Z,54.10
2022-08-21T08:32:39.849Z,54.10
2022-08-21T08:35:10.226Z,54.10
2022-08-21T08:37:40.968Z,54.10
2022-08-21T08:40:13.469Z,54.10
2022-08-21T08:42:41.482Z,54.00
2022-08-21T08:45:12.781Z,54.10
2022-08-21T08:47:44.081Z,54.10
2022-08-21T08:50:19.050Z,54.10
2022-08-21T08:52:51.639Z,54.10
2022-08-21T08:55:26.747Z,54.10
2022-08-21T08:57:56.534Z,54.10
2022-08-21T09:00:26.061Z,54.20
2022-08-21T09:02:56.648Z,54.10
2022-08-21T09:05:28.902Z,54.10
2022-08-21T09:08:27.871Z,54.10
2022-08-21T09:11:02.829Z,54.10
2022-08-21T09:13:42.118Z,54.10
2022-08-21T09:16:20.661Z,54.10
2022-08-21T09:19:01.385Z,54.10
2022-08-21T09:21:44.670Z,54.10
2022-08-21T09:24:27.942Z,54.10
2022-08-21T09:27:07.043Z,54.10
2022-08-21T09:29:39.316Z,54.10
2022-08-21T09:32:20.626Z,54.10
2022-08-21T09:35:00.099Z,54.10
2022-08-21T09:37:31.430Z,54.10
2022-08-21T09:40:00.521Z,54.70
2022-08-21T09:42:32.965Z,54.10
2022-08-21T09:45:12.715Z,54.10
2022-08-21T09:47:40.699Z,54.10
2022-08-21T09:50:14.760Z,54.10
2022-08-21T09:52:51.528Z,54.10
2022-08-21T09:55:50.800Z,54.10
2022-08-21T09:58:20.939Z,54.10
2022-08-21T10:00:59.820Z,54.10
2022-08-21T10:03:28.226Z,54.10
2022-08-21T10:05:59.589Z,54.10
2022-08-21T10:08:31.023Z,54.10
2022-08-21T10:11:05.249Z,54.10
2022-08-21T10:13:48.116Z,54.10
2022-08-21T10:16:27.326Z,54.10
2022-08-21T10:19:11.538Z,54.10
2022-08-21T10:21:44.479Z,54.10
2022-08-21T10:24:30.579Z,54.10
2022-08-21T10:27:07.867Z,54.10
2022-08-21T10:29:46.920Z,54.10
2022-08-21T10:32:37.688Z,54.20
2022-08-21T10:35:14.597Z,54.10
2022-08-21T10:37:54.048Z,54.10
2022-08-21T10:40:31.331Z,54.10
2022-08-21T10:43:10.827Z,54.20
2022-08-21T10:45:47.417Z,54.10
2022-08-21T10:48:23.400Z,54.80
2022-08-21T10:50:55.950Z,54.10
2022-08-21T10:53:38.568Z,54.20
2022-08-21T10:56:17.630Z,54.10
2022-08-21T10:58:52.603Z,54.10
2022-08-21T11:01:28.593Z,54.10
2022-08-21T11:04:11.688Z,54.10
2022-08-21T11:06:43.979Z,54.70
2022-08-21T11:09:15.683Z,54.10
2022-08-21T11:11:55.243Z,54.20
2022-08-21T11:14:41.104Z,54.10
2022-08-21T11:17:22.123Z,54.10
2022-08-21T11:19:55.442Z,54.20
2022-08-21T11:22:28.736Z,54.10
2022-08-21T11:25:01.913Z,54.10
2022-08-21T11:27:38.458Z,54.20
2022-08-21T11:30:09.159Z,54.10
2022-08-21T11:32:55.207Z,54.10
2022-08-21T11:35:35.628Z,54.70
2022-08-21T11:38:20.382Z,54.10
2022-08-21T11:41:04.148Z,54.00
2022-08-21T11:43:42.258Z,54.10
2022-08-21T11:46:19.527Z,54.00
2022-08-21T11:48:59.785Z,54.10
2022-08-21T11:51:35.014Z,54.10
2022-08-21T11:54:08.797Z,54.10
2022-08-21T11:56:43.065Z,54.10
2022-08-21T11:59:21.649Z,54.10
2022-08-21T12:01:52.531Z,54.10
2022-08-21T12:04:26.867Z,54.10
2022-08-21T12:06:55.104Z,54.10
2022-08-21T12:09:37.560Z,54.20
2022-08-21T12:12:08.275Z,54.00
2022-08-21T12:14:47.769Z,54.20
2022-08-21T12:17:20.906Z,54.10
2022-08-21T12:19:59.952Z,54.10
2022-08-21T12:22:39.962Z,54.10
2022-08-21T12:25:13.696Z,54.10
2022-08-21T12:27:48.726Z,54.10
2022-08-21T12:30:35.867Z,54.10
2022-08-21T12:33:06.953Z,54.10
2022-08-21T12:35:40.245Z,54.10
2022-08-21T12:38:19.078Z,54.10
2022-08-21T12:40:53.037Z,54.10
2022-08-21T12:43:25.454Z,54.10
2022-08-21T12:45:54.720Z,54.10
2022-08-21T12:48:28.112Z,54.00
2022-08-21T12:50:58.540Z,54.00
2022-08-21T12:53:31.592Z,54.00
2022-08-21T12:56:04.604Z,54.10
2022-08-21T12:58:33.421Z,54.00
2022-08-21T13:01:08.749Z,54.00
2022-08-21T13:03:38.889Z,54.10
2022-08-21T13:06:08.028Z,54.00
2022-08-21T13:08:41.729Z,54.10
2022-08-21T13:11:15.180Z,54.00
2022-08-21T13:13:49.989Z,54.00
2022-08-21T13:16:26.230Z,54.10
2022-08-21T13:18:58.121Z,54.10
2022-08-21T13:21:32.170Z,54.10
2022-08-21T13:24:41.690Z,54.10
2022-08-21T13:27:21.900Z,54.10
2022-08-21T13:29:54.014Z,54.10
2022-08-21T13:32:27.464Z,54.10
2022-08-21T13:34:55.563Z,54.10
2022-08-21T13:37:25.937Z,54.10
2022-08-21T13:39:54.749Z,54.10
2022-08-21T13:42:24.972Z,54.10
2022-08-21T13:44:55.911Z,54.10
2022-08-21T13:47:25.277Z,54.10
2022-08-21T13:49:59.152Z,54.10
2022-08-21T13:52:29.953Z,54.10
2022-08-21T13:54:59.826Z,54.10
2022-08-21T13:57:30.870Z,54.10
2022-08-21T14:00:17.734Z,54.10
2022-08-21T14:02:51.792Z,54.00
2022-08-21T14:05:23.933Z,54.00
2022-08-21T14:07:54.756Z,54.10
2022-08-21T14:10:30.483Z,54.10
2022-08-21T14:13:01.396Z,54.10
2022-08-21T14:15:32.457Z,54.10
2022-08-21T14:18:14.900Z,54.00
2022-08-21T14:20:43.345Z,54.00
2022-08-21T14:23:11.873Z,54.00
2022-08-21T14:25:43.970Z,54.00
2022-08-21T14:28:21.867Z,54.00
2022-08-21T14:30:57.019Z,54.60
2022-08-21T14:33:30.159Z,54.00
2022-08-21T14:35:58.174Z,53.90
2022-08-21T14:38:28.733Z,54.10
2022-08-21T14:40:59.613Z,54.10
2022-08-21T14:43:28.768Z,54.10
2022-08-21T14:45:57.127Z,54.10
2022-08-21T14:48:26.361Z,54.10
2022-08-21T14:50:59.782Z,54.10
2022-08-21T14:53:28.382Z,54.10
2022-08-21T14:56:08.621Z,54.20
2022-08-21T14:58:39.206Z,54.10
2022-08-21T15:01:09.491Z,54.10
2022-08-21T15:03:39.805Z,54.10
2022-08-21T15:06:08.798Z,54.10
2022-08-21T15:08:36.748Z,54.10
2022-08-21T15:11:12.459Z,54.20
2022-08-21T15:13:41.788Z,54.10
2022-08-21T15:16:12.185Z,54.10
2022-08-21T15:18:42.804Z,54.10
2022-08-21T15:21:11.153Z,54.20
2022-08-21T15:23:39.843Z,54.20
2022-08-21T15:26:11.791Z,54.20
2022-08-21T15:28:40.270Z,54.20
2022-08-21T15:31:08.950Z,54.10
2022-08-21T15:33:37.000Z,54.20
2022-08-21T15:36:06.744Z,54.20
2022-08-21T15:38:34.628Z,54.30
2022-08-21T15:41:04.511Z,54.30
2022-08-21T15:43:40.217Z,54.20
2022-08-21T15:46:10.120Z,54.20
2022-08-21T15:48:38.032Z,54.20
2022-08-21T15:51:07.710Z,54.30
2022-08-21T15:53:39.382Z,54.30
2022-08-21T15:56:08.348Z,54.30
2022-08-21T15:58:36.282Z,54.30
2022-08-21T16:01:04.336Z,54.20
2022-08-21T16:03:32.390Z,54.20
2022-08-21T16:06:00.328Z,54.20
2022-08-21T16:08:29.627Z,54.20
2022-08-21T16:10:58.036Z,54.20
2022-08-21T16:13:27.906Z,54.20
2022-08-21T16:15:56.421Z,54.20
2022-08-21T16:18:26.560Z,54.20
2022-08-21T16:20:54.933Z,54.20
2022-08-21T16:23:23.025Z,54.20
2022-08-21T16:25:52.499Z,54.20
2022-08-21T16:28:22.346Z,54.30
2022-08-21T16:30:51.991Z,54.20
2022-08-21T16:33:26.473Z,54.20
2022-08-21T16:35:54.482Z,54.20
2022-08-21T16:38:23.981Z,54.20
2022-08-21T16:40:53.542Z,54.20
2022-08-21T16:43:22.655Z,54.20
2022-08-21T16:45:50.587Z,54.20
2022-08-21T16:48:18.541Z,54.20
2022-08-21T16:50:50.810Z,54.20
2022-08-21T16:53:19.102Z,54.20
2022-08-21T16:55:47.480Z,54.20
2022-08-21T16:58:20.354Z,54.20
2022-08-21T17:00:49.485Z,54.20
2022-08-21T17:03:21.358Z,54.20
2022-08-21T17:05:49.658Z,54.20
2022-08-21T17:08:17.566Z,54.20
2022-08-21T17:10:49.046Z,54.20
2022-08-21T17:13:18.638Z,54.20
2022-08-21T17:15:46.722Z,54.20
2022-08-21T17:18:18.261Z,54.20
2022-08-21T17:20:47.578Z,54.20
2022-08-21T17:23:15.818Z,54.30
2022-08-21T17:25:46.769Z,54.20
2022-08-21T17:28:17.102Z,54.20
2022-08-21T17:30:46.822Z,54.20
2022-08-21T17:33:16.380Z,54.20
2022-08-21T17:35:44.749Z,54.20
2022-08-21T17:38:14.718Z,54.20
2022-08-21T17:40:43.724Z,54.20
2022-08-21T17:43:13.596Z,54.20
2022-08-21T17:45:41.756Z,54.20
2022-08-21T17:48:11.023Z,54.10
2022-08-21T17:50:39.946Z,54.10
2022-08-21T17:53:08.021Z,54.10
2022-08-21T17:55:36.287Z,54.10
2022-08-21T17:58:05.389Z,54.10
2022-08-21T18:00:33.821Z,54.10
2022-08-21T18:03:04.581Z,54.10
2022-08-21T18:05:34.047Z,54.10
2022-08-21T18:08:02.074Z,54.10
2022-08-21T18:10:30.327Z,54.00
2022-08-21T18:12:59.186Z,54.00
2022-08-21T18:15:27.336Z,54.00
2022-08-21T18:17:55.374Z,54.00
2022-08-21T18:20:24.757Z,54.00
2022-08-21T18:22:54.048Z,54.10
2022-08-21T18:25:22.097Z,54.00
2022-08-21T18:27:50.788Z,54.00
2022-08-21T18:30:20.945Z,54.10
2022-08-21T18:32:49.328Z,54.10
2022-08-21T18:35:17.830Z,54.10
2022-08-21T18:37:45.856Z,54.10
2022-08-21T18:40:15.813Z,54.10
2022-08-21T18:42:54.937Z,54.10
2022-08-21T18:45:24.065Z,54.20
2022-08-21T18:47:55.102Z,54.10
2022-08-21T18:50:25.428Z,54.10
2022-08-21T18:52:54.928Z,54.10
2022-08-21T18:55:24.807Z,54.10
2022-08-21T18:57:52.984Z,54.10
2022-08-21T19:00:24.412Z,54.10
2022-08-21T19:02:52.810Z,54.10
2022-08-21T19:05:23.141Z,54.10
2022-08-21T19:07:51.731Z,54.10
2022-08-21T19:13:12.330Z,54.10
2022-08-21T19:15:43.206Z,54.10
2022-08-21T19:18:13.407Z,54.10
2022-08-21T19:20:43.257Z,54.10
2022-08-21T19:23:17.400Z,54.10
2022-08-21T19:28:40.501Z,54.10
2022-08-21T19:31:16.431Z,54.10
2022-08-21T19:33:47.058Z,54.10
2022-08-21T19:36:19.130Z,54.10
2022-08-21T19:38:47.852Z,54.00
2022-08-21T19:41:17.686Z,54.00
2022-08-21T19:43:51.594Z,54.00
2022-08-21T19:46:24.949Z,54.00
2022-08-21T19:48:54.594Z,54.00
2022-08-21T19:51:23.215Z,54.00
2022-08-21T19:53:57.111Z,54.00
2022-08-21T19:56:27.085Z,54.00
2022-08-21T19:58:57.963Z,54.00
2022-08-21T20:01:27.959Z,54.00
2022-08-21T20:03:57.313Z,54.00
2022-08-21T20:06:26.481Z,54.00
2022-08-21T20:08:55.715Z,54.00
2022-08-21T20:11:28.436Z,53.90
2022-08-21T20:14:01.827Z,53.90
2022-08-21T20:16:30.946Z,53.90
2022-08-21T20:18:59.245Z,54.00
2022-08-21T20:21:27.447Z,53.90
2022-08-21T20:23:55.902Z,53.90
2022-08-21T20:26:24.930Z,53.90
2022-08-21T20:28:53.563Z,53.90
2022-08-21T20:31:24.813Z,53.90
2022-08-21T20:33:55.892Z,53.90
2022-08-21T20:36:23.910Z,53.90
2022-08-21T20:38:52.577Z,53.90
2022-08-21T20:41:30.555Z,53.90
2022-08-21T20:44:00.311Z,53.90
2022-08-21T20:46:32.206Z,53.90
2022-08-21T20:49:01.941Z,53.90
2022-08-21T20:51:34.777Z,53.80
2022-08-21T20:54:09.043Z,53.80
2022-08-21T20:56:44.904Z,53.80
2022-08-21T20:59:22.433Z,53.80
2022-08-21T21:01:55.035Z,53.80
2022-08-21T21:04:33.989Z,53.80
2022-08-21T21:07:06.570Z,53.80
2022-08-21T21:09:43.036Z,53.70
2022-08-21T21:12:17.380Z,53.70
2022-08-21T21:14:49.611Z,53.70
2022-08-21T21:17:25.739Z,53.70
2022-08-21T21:20:03.695Z,54.40
2022-08-21T21:22:38.235Z,53.70
2022-08-21T21:25:14.129Z,53.70
2022-08-21T21:27:49.099Z,53.70
2022-08-21T21:30:21.292Z,53.70
2022-08-21T21:32:50.718Z,53.70
2022-08-21T21:35:32.319Z,53.70
2022-08-21T21:38:06.343Z,53.70
2022-08-21T21:40:45.571Z,53.70
2022-08-21T21:43:26.786Z,53.70
2022-08-21T21:46:10.380Z,53.70
2022-08-21T21:48:57.227Z,53.70
2022-08-21T21:51:55.831Z,53.60
2022-08-21T21:54:46.014Z,53.60
2022-08-21T21:57:21.820Z,53.60
2022-08-21T22:00:03.936Z,53.60
2022-08-21T22:02:41.964Z,53.60
2022-08-21T22:05:36.721Z,53.70
2022-08-21T22:08:11.114Z,53.60
2022-08-21T22:10:47.427Z,53.60
2022-08-21T22:13:26.619Z,53.80
2022-08-21T22:15:55.460Z,53.70
2022-08-21T22:18:27.464Z,53.60
2022-08-21T22:21:02.257Z,53.60
2022-08-21T22:23:34.137Z,53.60
2022-08-21T22:26:05.930Z,53.60
2022-08-21T22:28:40.746Z,53.70
2022-08-21T22:31:18.841Z,53.70
2022-08-21T22:34:05.623Z,53.60
2022-08-21T22:36:38.342Z,53.70
2022-08-21T22:39:17.419Z,53.60
2022-08-21T22:41:48.326Z,53.60
2022-08-21T22:44:23.413Z,53.70
2022-08-21T22:46:58.492Z,53.60
2022-08-21T22:49:34.011Z,53.60
2022-08-21T22:52:20.643Z,53.70
2022-08-21T22:54:51.570Z,53.70
2022-08-21T22:57:26.282Z,53.60
2022-08-21T22:59:59.622Z,53.70
2022-08-21T23:02:35.570Z,53.70
2022-08-21T23:05:16.252Z,53.60
2022-08-21T23:07:49.973Z,53.70
2022-08-21T23:10:26.696Z,53.60
2022-08-21T23:13:01.851Z,53.70
2022-08-21T23:15:36.414Z,53.70
2022-08-21T23:18:13.523Z,53.60
2022-08-21T23:20:56.149Z,53.60
2022-08-21T23:23:44.830Z,53.60
2022-08-21T23:26:22.764Z,53.60
2022-08-21T23:29:08.612Z,53.60
2022-08-21T23:31:45.097Z,53.60
2022-08-21T23:37:49.112Z,53.60
2022-08-21T23:40:36.341Z,53.60
2022-08-21T23:43:15.554Z,53.60
2022-08-21T23:46:04.605Z,53.60
2022-08-21T23:48:42.280Z,53.60
2022-08-21T23:51:14.719Z,53.60
2022-08-21T23:53:55.455Z,53.60
2022-08-21T23:56:36.808Z,53.60
2022-08-21T23:59:14.633Z,53.60
